Lester, AL

5:01 AM CDT on April 25, 2015 (GMT -0500)
Huntsville International | | Change Station
CLOSE
Current Station
Airport
Location: Huntsville,
Elevation: 643 ft
Nearby Weather Stations

Elev 643 ft 34.64 °N, 86.79 °W | Updated 8 minutes ago

Rain
Rain
57 °F
Feels Like 57 °F
N
10
Wind Variable Wind from ESE

Today
High -- | Low -- °F
--% Chance of Precip.
Yesterday
High -- | Low -- °F
Precip. -- in
6:04 AM 7:28 PM
Waxing Crescent, 44% visible
Pressure 29.80 in
Visibility 6.0 miles
Clouds Few 6500 ft
Scattered Clouds 8500 ft
Scattered Clouds 11000 ft
Dew Point 55 °F
Humidity 93%
Rainfall 0.66 in
Snow Depth Not available.
UV 0 out of 12
Pollen 7.80 out of 12
Air Quality Not available.
Flu Activity No Activity
METAR KHSV 250953Z 11009KT 6SM -RA BR FEW065 SCT085 SCT110 14/13 A2981 RMK AO2 SLP089 P0027 T01390128

More Conditions Fewer Conditions

Pressure 29.80 in
Visibility 6.0 miles
Clouds Few 6500 ft
Scattered Clouds 8500 ft
Scattered Clouds 11000 ft
Dew Point 55 °F
Humidity 93%
Rainfall 0.66 in
Snow Depth Not available.
UV 0 out of 12
Pollen 7.80 out of 12
Air Quality Not available.
Flu Activity No Activity
METAR KHSV 250953Z 11009KT 6SM -RA BR FEW065 SCT085 SCT110 14/13 A2981 RMK AO2 SLP089 P0027 T01390128

More Conditions Fewer Conditions

10-Day Weather Forecast

Almanac

Astronomy

Apr. 25, 2015 Rise Set
Actual Time
Civil Twilight
Nautical Twilight
Astronomical Twilight
Moon
Length of Visible Light
Length of Day
Tomorrow will be .
, % of the Moon is Illuminated

Today's Extremes

State Highs State Lows

Community

WunderPhotos

Upload Photos

1,816,635 photos uploaded!

WunderBlogs® & News

Nearby

Air Quality

  Air Quality AQ Index Pollutant
Not available.

Snow Depth

Station Depth Elevation

Earthquake Activity

City Distance Mag. Time & Date
Minimum magnitude displayed is 2.5.

Coastal Water Temperatures

Place Temperature

Stations

Nearby Weather Stations

Station Location Temp. Windchill Dew Point Humidity Wind Precip. Elev Updated Type